Time;durP1;ratioP1;P1;durP2;ratioP2;P2;SDS_P1;SDS_P2;PMS_P1;PMS_P2;Temp;Humidity;BMP_temperature;BMP_pressure;BME280_temperature;BME280_humidity;BME280_pressure;Samples;Min_cycle;Max_cycle;Signal;HPM_P1;HPM_P2
2023/06/11 00:00:14;;;;;;;14.05;9.32;;;;;;;21.42;66.81;101377.28;5011470;28;20037;-71
2023/06/11 00:02:41;;;;;;;12.93;9.13;;;;;;;21.42;68.22;101379.19;5011655;28;20048;-71
2023/06/11 00:05:09;;;;;;;15.88;10.05;;;;;;;21.40;66.33;101379.44;5011356;28;20105;-71
2023/06/11 00:07:37;;;;;;;14.73;9.48;;;;;;;21.32;67.93;101377.13;5011417;28;20045;-71
2023/06/11 00:10:03;;;;;;;16.13;9.23;;;;;;;21.24;69.18;101378.41;5011217;28;20042;-71
2023/06/11 00:12:29;;;;;;;15.82;9.27;;;;;;;21.18;70.61;101384.06;5011272;28;20034;-71
2023/06/11 00:14:54;;;;;;;15.40;9.88;;;;;;;21.20;67.72;101377.31;5011181;28;20035;-71
2023/06/11 00:17:19;;;;;;;15.60;9.60;;;;;;;21.18;67.58;101368.59;5011131;28;20036;-71
2023/06/11 00:19:47;;;;;;;14.15;10.27;;;;;;;21.14;67.28;101366.63;5011113;28;20389;-71
2023/06/11 00:22:14;;;;;;;15.88;10.57;;;;;;;21.09;69.03;101369.28;5011096;28;20513;-71
2023/06/11 00:24:40;;;;;;;17.27;10.05;;;;;;;21.14;68.25;101372.06;5010912;28;20128;-71
2023/06/11 00:27:06;;;;;;;15.50;9.98;;;;;;;21.08;68.44;101368.47;5010948;28;20152;-71
2023/06/11 00:29:31;;;;;;;17.40;11.48;;;;;;;21.01;70.54;101363.28;5010942;28;20037;-71
2023/06/11 00:31:57;;;;;;;16.25;10.90;;;;;;;20.98;69.91;101368.38;5010982;28;20041;-71
2023/06/11 00:34:22;;;;;;;15.82;10.77;;;;;;;21.00;69.08;101363.50;5010802;28;20033;-71
2023/06/11 00:36:47;;;;;;;15.13;10.75;;;;;;;20.98;71.28;101374.59;5010741;28;20362;-71
2023/06/11 00:39:13;;;;;;;16.13;10.35;;;;;;;20.90;69.19;101371.53;5010874;28;20030;-71
2023/06/11 00:41:45;;;;;;;15.43;10.52;;;;;;;20.83;69.79;101371.72;5010594;28;20117;-71
2023/06/11 00:44:17;;;;;;;15.27;10.43;;;;;;;20.75;69.98;101375.69;5010817;28;20028;-71
2023/06/11 00:46:47;;;;;;;14.23;9.80;;;;;;;20.68;70.90;101372.34;4992082;28;20118;-71
2023/06/11 00:49:13;;;;;;;15.07;10.98;;;;;;;20.65;70.78;101363.91;4990994;28;20022;-71
2023/06/11 00:51:44;;;;;;;18.70;11.10;;;;;;;20.67;71.27;101369.88;4991668;28;20085;-71
2023/06/11 00:54:12;;;;;;;17.92;10.45;;;;;;;20.62;72.84;101375.22;4974163;28;20038;-71
2023/06/11 00:56:41;;;;;;;16.73;11.55;;;;;;;20.55;73.48;101361.88;4991575;28;20033;-71
2023/06/11 00:59:07;;;;;;;16.23;10.52;;;;;;;20.53;73.08;101364.78;4991652;28;20030;-71
2023/06/11 01:01:35;;;;;;;17.60;10.50;;;;;;;20.56;72.27;101364.31;4974059;28;20045;-71
2023/06/11 01:04:02;;;;;;;17.63;11.23;;;;;;;20.51;73.21;101364.25;4991614;28;20026;-71
2023/06/11 01:06:33;;;;;;;15.52;11.85;;;;;;;20.41;74.11;101358.69;4991450;28;20034;-71
2023/06/11 01:09:00;;;;;;;15.90;11.07;;;;;;;20.49;74.26;101365.56;4974036;28;20533;-71
2023/06/11 01:11:27;;;;;;;16.35;10.82;;;;;;;20.37;73.67;101362.94;4974365;28;20469;-71
2023/06/11 01:13:53;;;;;;;16.75;11.38;;;;;;;20.36;73.73;101372.16;4991511;28;20034;-71
2023/06/11 01:16:42;;;;;;;16.17;11.18;;;;;;;20.38;72.27;101364.56;4991371;28;20026;-71
2023/06/11 01:19:28;;;;;;;18.48;10.73;;;;;;;20.39;74.28;101371.66;4984281;28;20034;-71
2023/06/11 01:21:59;;;;;;;15.07;10.65;;;;;;;20.37;73.35;101371.06;4991360;28;20025;-71
2023/06/11 01:24:59;;;;;;;16.90;10.60;;;;;;;20.34;72.89;101374.28;4991035;28;20100;-71
2023/06/11 01:27:56;;;;;;;17.45;10.93;;;;;;;20.33;75.47;101380.75;4991126;28;20430;-71
2023/06/11 01:30:23;;;;;;;17.92;11.65;;;;;;;20.25;75.23;101382.03;4991125;28;20026;-71
2023/06/11 01:32:56;;;;;;;17.58;11.82;;;;;;;20.23;75.10;101380.63;4990911;28;20030;-71
2023/06/11 01:35:24;;;;;;;16.20;11.52;;;;;;;20.17;77.85;101381.59;4990906;28;20085;-71
2023/06/11 01:37:55;;;;;;;17.92;11.20;;;;;;;20.18;75.75;101372.44;4990820;28;20393;-71
2023/06/11 01:40:26;;;;;;;21.87;11.73;;;;;;;20.17;75.69;101378.91;4991140;28;20040;-71
2023/06/11 01:42:51;;;;;;;18.85;11.68;;;;;;;20.12;75.81;101385.91;4973404;28;20705;-71
2023/06/11 01:45:18;;;;;;;18.50;11.93;;;;;;;20.17;75.25;101381.59;4990744;28;20034;-71
2023/06/11 01:47:48;;;;;;;18.42;12.52;;;;;;;20.11;75.27;101376.13;4990733;28;20038;-71
2023/06/11 01:50:14;;;;;;;17.25;11.90;;;;;;;20.08;75.94;101379.31;4990608;28;20421;-71
2023/06/11 01:52:40;;;;;;;17.02;11.48;;;;;;;20.10;75.90;101376.38;4990726;28;20034;-71
2023/06/11 01:55:07;;;;;;;18.10;11.50;;;;;;;20.07;75.93;101374.16;4990495;28;20034;-71
2023/06/11 01:57:33;;;;;;;20.25;12.60;;;;;;;20.09;76.15;101374.72;4990709;28;20031;-71
2023/06/11 01:59:58;;;;;;;18.77;11.95;;;;;;;20.05;77.15;101376.28;4990564;28;20042;-71
2023/06/11 02:02:26;;;;;;;16.48;11.63;;;;;;;19.99;79.42;101375.41;4990238;28;20093;-71
2023/06/11 02:04:52;;;;;;;17.55;12.05;;;;;;;19.93;79.17;101365.53;4990399;28;20022;-71
2023/06/11 02:07:18;;;;;;;16.45;11.20;;;;;;;19.96;77.86;101377.75;4990533;28;20030;-71
2023/06/11 02:09:43;;;;;;;19.20;12.00;;;;;;;19.89;78.09;101369.81;5006230;28;20568;-71
2023/06/11 02:12:09;;;;;;;16.15;11.00;;;;;;;19.93;77.45;101362.84;4991801;28;20116;-71
2023/06/11 02:14:35;;;;;;;17.20;11.93;;;;;;;19.92;78.13;101367.44;4991276;28;20481;-71
2023/06/11 02:17:00;;;;;;;17.90;12.57;;;;;;;19.87;77.69;101366.53;5009091;28;20040;-71
2023/06/11 02:19:25;;;;;;;20.40;12.65;;;;;;;19.83;77.97;101373.50;5008993;28;20033;-71
2023/06/11 02:21:51;;;;;;;18.08;12.60;;;;;;;19.86;78.46;101379.25;5008937;28;20057;-71
2023/06/11 02:24:16;;;;;;;21.08;13.50;;;;;;;19.79;78.70;101375.88;5008816;28;20073;-71
2023/06/11 02:26:41;;;;;;;17.02;11.52;;;;;;;19.81;78.78;101373.75;5008977;28;20025;-71
2023/06/11 02:29:07;;;;;;;17.77;12.75;;;;;;;19.74;78.99;101374.97;5008919;28;20022;-71
2023/06/11 02:31:32;;;;;;;15.98;11.85;;;;;;;19.63;82.25;101371.25;5008953;28;20493;-71
2023/06/11 02:33:57;;;;;;;21.13;13.35;;;;;;;19.53;82.44;101373.78;4991365;28;20510;-71
2023/06/11 02:36:23;;;;;;;19.02;11.63;;;;;;;19.44;82.41;101376.03;5008930;28;20069;-71
2023/06/11 02:38:48;;;;;;;16.83;12.23;;;;;;;19.38;81.99;101377.81;5008967;28;20033;-71
2023/06/11 02:41:15;;;;;;;17.40;12.50;;;;;;;19.32;81.89;101378.00;5009143;28;20200;-71
2023/06/11 02:43:41;;;;;;;17.00;11.93;;;;;;;19.35;82.51;101369.38;4975517;28;20022;-72
2023/06/11 02:46:06;;;;;;;17.08;12.27;;;;;;;19.35;82.00;101372.91;5008629;28;20026;-71
2023/06/11 02:48:32;;;;;;;18.30;12.05;;;;;;;19.34;82.73;101371.28;4991620;28;20058;-71
2023/06/11 02:50:57;;;;;;;16.52;11.70;;;;;;;19.33;83.13;101375.03;4990026;28;20358;-71
2023/06/11 02:53:22;;;;;;;19.92;13.02;;;;;;;19.33;83.81;101366.91;4989873;28;20033;-71
2023/06/11 02:55:48;;;;;;;18.95;13.30;;;;;;;19.30;83.35;101374.69;4990023;28;20056;-72
2023/06/11 02:58:13;;;;;;;17.90;11.98;;;;;;;19.30;82.44;101370.09;4989931;28;20393;-71
2023/06/11 03:00:38;;;;;;;17.90;12.68;;;;;;;19.25;84.53;101372.72;4956425;28;20038;-71
2023/06/11 03:03:04;;;;;;;17.13;11.40;;;;;;;19.20;84.83;101378.88;4972330;28;20038;-70
2023/06/11 03:05:29;;;;;;;16.70;11.50;;;;;;;19.16;84.28;101377.69;4989707;28;20108;-71
2023/06/11 03:07:55;;;;;;;21.88;12.55;;;;;;;19.15;84.31;101377.94;4989865;28;20470;-71
2023/06/11 03:10:20;;;;;;;17.33;12.68;;;;;;;19.15;83.93;101377.94;4989768;28;20386;-71
2023/06/11 03:12:45;;;;;;;20.25;13.75;;;;;;;19.13;84.36;101383.59;4990450;28;20093;-71
2023/06/11 03:15:11;;;;;;;19.90;12.82;;;;;;;19.09;85.51;101384.31;4993628;28;20403;-71
2023/06/11 03:17:36;;;;;;;19.60;13.40;;;;;;;19.02;85.20;101376.31;4976205;28;20026;-71
2023/06/11 03:20:02;;;;;;;20.13;13.93;;;;;;;18.96;85.06;101391.63;4993506;28;20636;-71
2023/06/11 03:22:27;;;;;;;19.55;14.15;;;;;;;19.00;84.39;101389.28;4993544;28;20041;-71
2023/06/11 03:24:52;;;;;;;17.20;12.05;;;;;;;19.01;84.26;101394.44;4997274;28;20088;-71
2023/06/11 03:27:18;;;;;;;20.00;12.95;;;;;;;18.99;85.29;101383.06;5012111;28;20021;-71
2023/06/11 03:29:43;;;;;;;18.98;13.05;;;;;;;19.00;85.42;101391.97;4994278;28;20385;-71
2023/06/11 03:32:09;;;;;;;22.60;13.98;;;;;;;18.93;85.46;101388.59;5011895;28;20124;-71
2023/06/11 03:34:34;;;;;;;19.83;13.25;;;;;;;18.95;85.51;101391.88;5001694;28;20058;-71
2023/06/11 03:36:59;;;;;;;17.40;12.75;;;;;;;18.94;85.86;101391.06;4993208;28;20026;-71
2023/06/11 03:39:25;;;;;;;24.30;12.35;;;;;;;18.95;86.39;101390.00;4993154;28;20061;-71
2023/06/11 03:41:50;;;;;;;20.48;12.90;;;;;;;18.97;85.91;101389.75;4993018;28;20045;-71
2023/06/11 03:44:15;;;;;;;17.50;13.50;;;;;;;18.85;86.21;101378.97;4993026;28;20140;-71
2023/06/11 03:46:41;;;;;;;19.88;12.52;;;;;;;18.97;85.10;101395.16;4993042;28;20077;-71
2023/06/11 03:49:06;;;;;;;19.35;12.40;;;;;;;18.99;85.77;101401.97;4993016;28;20035;-71
2023/06/11 03:51:31;;;;;;;20.25;13.55;;;;;;;19.01;85.34;101393.59;4975517;28;20030;-71
2023/06/11 03:53:57;;;;;;;20.27;12.55;;;;;;;19.00;85.75;101400.09;4992942;28;20034;-71
2023/06/11 03:56:22;;;;;;;19.55;12.32;;;;;;;19.02;85.13;101404.19;4992855;28;20085;-71
2023/06/11 03:58:48;;;;;;;18.10;12.60;;;;;;;19.02;85.08;101397.94;4992764;28;20026;-71
2023/06/11 04:01:13;;;;;;;19.45;13.82;;;;;;;19.00;84.82;101390.09;4992799;28;20028;-71
2023/06/11 04:03:39;;;;;;;17.52;12.88;;;;;;;19.02;85.40;101396.09;4992679;28;20113;-71
2023/06/11 04:06:04;;;;;;;20.48;14.05;;;;;;;19.01;85.79;101407.13;4992649;28;20112;-71
2023/06/11 04:08:30;;;;;;;21.38;14.23;;;;;;;19.00;85.69;101397.38;4975188;28;20035;-71
2023/06/11 04:10:55;;;;;;;19.55;15.10;;;;;;;19.01;85.46;101396.31;4992703;28;20113;-71
2023/06/11 04:13:20;;;;;;;21.08;15.05;;;;;;;19.10;85.29;101403.00;4992397;28;20068;-71
2023/06/11 04:15:46;;;;;;;22.50;14.02;;;;;;;19.10;85.37;101391.34;4992503;28;20019;-71
2023/06/11 04:18:11;;;;;;;18.75;13.32;;;;;;;19.20;86.38;101396.94;4992241;28;20061;-71
2023/06/11 04:20:37;;;;;;;21.85;15.50;;;;;;;19.14;87.18;101404.16;4992342;28;20034;-71
2023/06/11 04:23:02;;;;;;;19.92;13.80;;;;;;;19.17;86.68;101402.84;4974514;28;20041;-71
2023/06/11 04:25:31;;;;;;;21.90;14.52;;;;;;;19.13;85.86;101399.00;4992094;28;20034;-71
2023/06/11 04:27:57;;;;;;;20.17;13.52;;;;;;;19.25;86.33;101405.16;4975454;28;20030;-72
2023/06/11 04:30:22;;;;;;;20.85;14.63;;;;;;;19.30;85.04;101404.44;4992302;28;20437;-71
2023/06/11 04:32:54;;;;;;;19.73;13.13;;;;;;;19.38;84.75;101407.59;4991950;28;20100;-71
2023/06/11 04:35:21;;;;;;;;;;;;;;;19.48;82.40;101405.06;4992583;28;20038;-71
2023/06/11 04:37:47;;;;;;;18.33;12.70;;;;;;;19.45;83.66;101410.97;4992276;28;19946;-72
2023/06/11 04:40:14;;;;;;;18.58;13.15;;;;;;;19.54;83.91;101407.88;4992246;28;20038;-71
2023/06/11 04:42:43;;;;;;;21.15;15.23;;;;;;;19.72;82.65;101406.88;4992134;28;20501;-72
2023/06/11 04:45:09;;;;;;;21.23;13.80;;;;;;;19.78;83.89;101403.19;4991810;28;20038;-72
2023/06/11 04:47:35;;;;;;;20.52;15.07;;;;;;;19.86;82.49;101405.50;5002676;28;20116;-71
2023/06/11 04:50:04;;;;;;;19.40;14.38;;;;;;;19.89;82.09;101410.44;5010722;28;20040;-71
2023/06/11 04:52:37;;;;;;;23.13;14.00;;;;;;;19.93;81.71;101406.97;5010598;28;20562;-71
2023/06/11 04:55:03;;;;;;;26.48;12.82;;;;;;;19.91;82.25;101403.72;5010400;28;20040;-71
2023/06/11 04:57:32;;;;;;;19.50;13.27;;;;;;;19.92;82.24;101399.09;5010440;28;20477;-72
2023/06/11 04:59:58;;;;;;;20.67;13.55;;;;;;;19.98;81.97;101400.81;5010304;28;20113;-71
2023/06/11 05:02:25;;;;;;;19.85;14.10;;;;;;;20.03;82.15;101416.34;5010642;28;20030;-71
2023/06/11 05:04:53;;;;;;;20.58;14.38;;;;;;;20.08;81.65;101411.81;5010774;28;20034;-71
2023/06/11 05:07:21;;;;;;;18.00;13.10;;;;;;;20.29;81.11;101422.97;4993589;28;20113;-71
2023/06/11 05:09:47;;;;;;;23.10;13.57;;;;;;;20.44;79.73;101403.44;5010603;28;20033;-72
2023/06/11 05:12:12;;;;;;;24.70;13.95;;;;;;;20.50;79.57;101410.56;4992817;28;20502;-72
2023/06/11 05:14:38;;;;;;;18.35;12.77;;;;;;;20.50;80.40;101413.25;5010302;28;20186;-71
2023/06/11 05:17:04;;;;;;;23.70;14.30;;;;;;;20.61;79.67;101414.25;5010086;28;20043;-72
2023/06/11 05:19:30;;;;;;;19.92;12.75;;;;;;;20.72;79.61;101414.16;5010352;28;20077;-71
2023/06/11 05:21:55;;;;;;;19.52;13.40;;;;;;;20.76;77.93;101420.69;4992588;28;20037;-72
2023/06/11 05:24:21;;;;;;;20.73;13.35;;;;;;;20.84;78.68;101424.88;5009811;28;20050;-72
2023/06/11 05:26:46;;;;;;;18.05;13.25;;;;;;;20.85;78.79;101423.78;5010034;28;20038;-72
2023/06/11 05:29:12;;;;;;;19.20;14.10;;;;;;;20.86;79.08;101416.50;5010078;28;20030;-72
2023/06/11 05:31:38;;;;;;;18.27;12.63;;;;;;;20.92;77.03;101424.44;5009691;28;20033;-71
2023/06/11 05:34:04;;;;;;;18.52;12.20;;;;;;;20.90;77.11;101421.16;5009938;28;20412;-71
2023/06/11 05:36:30;;;;;;;19.58;12.32;;;;;;;20.98;77.66;101419.88;5009410;28;20072;-71
2023/06/11 05:38:55;;;;;;;17.83;12.60;;;;;;;21.03;75.79;101419.94;4992259;28;20054;-72
2023/06/11 05:41:22;;;;;;;19.70;13.18;;;;;;;21.12;75.87;101426.59;5009920;28;21068;-72
2023/06/11 05:43:47;;;;;;;19.90;13.25;;;;;;;21.18;76.17;101419.31;4992161;28;20381;-71
2023/06/11 05:46:13;;;;;;;19.95;12.98;;;;;;;21.16;75.71;101410.63;5009578;28;20025;-72
2023/06/11 05:48:39;;;;;;;19.17;12.13;;;;;;;21.32;75.43;101422.47;5009810;28;20033;-71
2023/06/11 05:51:05;;;;;;;20.55;13.82;;;;;;;21.34;76.18;101418.41;4991882;28;20045;-71
2023/06/11 05:53:30;;;;;;;17.83;12.38;;;;;;;21.61;74.17;101414.91;5009434;28;20021;-71
2023/06/11 05:55:56;;;;;;;19.83;12.45;;;;;;;21.77;73.12;101418.59;5009657;28;20046;-71
2023/06/11 05:58:22;;;;;;;23.13;12.35;;;;;;;21.94;72.88;101421.19;5009450;28;20043;-71
2023/06/11 06:00:47;;;;;;;17.52;11.68;;;;;;;22.13;71.79;101419.72;5009504;28;20123;-71
2023/06/11 06:03:13;;;;;;;18.45;11.80;;;;;;;22.07;72.49;101418.06;5009330;28;20404;-72
2023/06/11 06:05:38;;;;;;;16.67;11.45;;;;;;;21.97;72.38;101423.41;4991649;28;20032;-72
2023/06/11 06:08:04;;;;;;;17.85;11.93;;;;;;;21.90;73.61;101418.16;5009291;28;20547;-72
2023/06/11 06:10:29;;;;;;;17.95;12.15;;;;;;;21.90;72.61;101420.88;5009288;28;20631;-71
2023/06/11 06:12:54;;;;;;;20.45;12.55;;;;;;;21.91;73.18;101427.16;5009620;28;20040;-72
2023/06/11 06:15:20;;;;;;;18.58;12.07;;;;;;;21.95;73.37;101422.81;5009115;28;20014;-71
2023/06/11 06:17:45;;;;;;;17.80;12.15;;;;;;;21.99;73.33;101438.34;5009097;28;20038;-71
2023/06/11 06:20:11;;;;;;;16.67;11.90;;;;;;;22.02;72.22;101428.88;5008971;28;20575;-72
2023/06/11 06:22:41;;;;;;;18.52;11.25;;;;;;;22.07;72.36;101432.44;5009341;28;20535;-71
2023/06/11 06:25:06;;;;;;;15.95;11.95;;;;;;;22.15;73.86;101435.78;5008966;28;20065;-71
2023/06/11 06:27:32;;;;;;;17.40;11.25;;;;;;;22.24;73.13;101448.66;4991400;28;20066;-71
2023/06/11 06:29:57;;;;;;;18.55;11.68;;;;;;;22.30;72.75;101433.19;5009102;28;20026;-71
2023/06/11 06:32:22;;;;;;;21.77;11.65;;;;;;;22.31;72.63;101437.53;4998899;28;20823;-73
2023/06/11 06:34:48;;;;;;;16.92;10.95;;;;;;;22.35;71.33;101432.41;4990246;28;20026;-73
2023/06/11 06:37:13;;;;;;;18.85;11.25;;;;;;;22.36;72.08;101437.59;4990231;28;20034;-72
2023/06/11 06:39:38;;;;;;;17.95;10.50;;;;;;;22.41;71.48;101440.34;4990397;28;20030;-73
2023/06/11 06:42:04;;;;;;;15.05;9.52;;;;;;;22.46;72.02;101445.00;5008826;28;20030;-72
2023/06/11 06:44:30;;;;;;;14.90;10.27;;;;;;;22.52;70.83;101442.03;4991410;28;20057;-72
2023/06/11 06:46:55;;;;;;;14.27;9.55;;;;;;;22.58;71.84;101448.31;5008918;28;20058;-73
2023/06/11 06:49:21;;;;;;;14.35;9.77;;;;;;;22.63;71.99;101439.38;4994601;28;20048;-72
2023/06/11 06:51:46;;;;;;;16.92;10.35;;;;;;;22.68;69.64;101439.41;4985459;28;20030;-72
2023/06/11 06:54:12;;;;;;;17.45;11.10;;;;;;;22.74;70.02;101444.63;4993873;28;20069;-73
2023/06/11 06:56:37;;;;;;;15.48;10.60;;;;;;;22.79;71.04;101440.28;4995994;28;20102;-72
2023/06/11 06:59:02;;;;;;;15.02;8.88;;;;;;;22.85;70.79;101440.06;5012777;28;20133;-72
2023/06/11 07:01:28;;;;;;;14.90;10.00;;;;;;;22.89;70.13;101435.72;5012212;28;20057;-72
2023/06/11 07:03:53;;;;;;;15.05;10.02;;;;;;;22.95;70.93;101434.66;5011753;28;20080;-72
2023/06/11 07:06:19;;;;;;;12.77;9.55;;;;;;;23.04;68.37;101436.91;5012558;28;20287;-72
2023/06/11 07:08:44;;;;;;;15.48;9.90;;;;;;;23.07;69.57;101433.66;5012568;28;20022;-72
2023/06/11 07:11:09;;;;;;;13.82;9.85;;;;;;;23.13;70.10;101441.56;4994818;28;20127;-72
2023/06/11 07:13:35;;;;;;;16.77;10.88;;;;;;;23.19;68.45;101443.22;5012520;28;20053;-72
2023/06/11 07:16:00;;;;;;;16.15;10.13;;;;;;;23.22;70.79;101438.34;5012780;28;20101;-72
2023/06/11 07:18:27;;;;;;;12.98;10.13;;;;;;;23.31;68.23;101439.44;5012194;28;20036;-72
2023/06/11 07:20:53;;;;;;;15.00;10.13;;;;;;;23.40;67.83;101451.47;4994891;28;20037;-72
2023/06/11 07:23:18;;;;;;;16.23;9.40;;;;;;;23.47;68.36;101448.47;4996714;28;20054;-72
2023/06/11 07:25:44;;;;;;;12.27;8.23;;;;;;;23.55;67.39;101448.78;4993639;28;20116;-72
2023/06/11 07:28:10;;;;;;;13.38;8.68;;;;;;;23.62;67.69;101452.03;4993588;28;20472;-72
2023/06/11 07:30:36;;;;;;;12.40;9.20;;;;;;;23.69;66.22;101443.63;4993550;28;20062;-72
2023/06/11 07:33:02;;;;;;;12.70;8.90;;;;;;;23.74;67.69;101440.13;4993542;28;20034;-72
2023/06/11 07:35:27;;;;;;;16.15;9.52;;;;;;;23.84;66.44;101451.00;4993472;28;20036;-72
2023/06/11 07:37:53;;;;;;;13.27;9.25;;;;;;;23.94;66.38;101447.47;4975601;28;20498;-72
2023/06/11 07:40:19;;;;;;;12.73;8.77;;;;;;;24.01;68.20;101445.31;4993269;28;20076;-72
2023/06/11 07:42:46;;;;;;;12.52;8.18;;;;;;;24.07;65.27;101444.22;4993341;28;20058;-72
2023/06/11 07:45:13;;;;;;;11.63;8.95;;;;;;;24.18;64.50;101453.19;4993419;28;20038;-72
2023/06/11 07:47:39;;;;;;;11.32;8.05;;;;;;;24.25;64.81;101445.56;4993249;28;20026;-72
2023/06/11 07:50:05;;;;;;;11.30;8.52;;;;;;;24.33;63.61;101450.47;4993343;28;20043;-72
2023/06/11 07:52:31;;;;;;;13.00;7.47;;;;;;;24.40;65.02;101451.00;4993187;28;20441;-73
2023/06/11 07:54:57;;;;;;;11.85;8.32;;;;;;;24.46;63.91;101440.94;5011183;28;20028;-72
2023/06/11 07:57:22;;;;;;;11.10;7.93;;;;;;;24.53;63.39;101448.84;4994708;28;20041;-74
2023/06/11 07:59:48;;;;;;;16.00;7.97;;;;;;;24.58;62.63;101441.47;4993579;28;20026;-73
2023/06/11 08:02:14;;;;;;;11.85;7.90;;;;;;;24.64;63.07;101445.81;5010867;28;20029;-73
2023/06/11 08:04:40;;;;;;;11.85;8.27;;;;;;;24.72;62.15;101447.16;5009484;28;20643;-73
2023/06/11 08:07:06;;;;;;;13.63;7.80;;;;;;;24.87;62.62;101446.28;4992962;28;20030;-73
2023/06/11 08:09:37;;;;;;;12.57;8.45;;;;;;;24.99;61.94;101452.22;5011101;28;20037;-73
2023/06/11 08:12:04;;;;;;;12.40;8.30;;;;;;;25.12;61.51;101446.16;5005083;28;20429;-73
2023/06/11 08:14:29;;;;;;;11.43;8.23;;;;;;;25.87;59.75;101445.25;5001047;28;20276;-73
2023/06/11 08:16:55;;;;;;;13.90;8.20;;;;;;;28.01;54.21;101445.72;4989031;28;20704;-74
2023/06/11 08:19:21;;;;;;;9.60;7.70;;;;;;;30.50;46.54;101441.47;4975236;28;20035;-74
2023/06/11 08:21:47;;;;;;;14.10;7.60;;;;;;;32.48;41.44;101437.53;4975331;28;20488;-74
2023/06/11 08:24:12;;;;;;;8.88;6.88;;;;;;;33.91;37.27;101432.00;4991749;28;20145;-73
2023/06/11 08:26:38;;;;;;;11.25;7.03;;;;;;;34.88;34.40;101444.34;4992272;28;20041;-71
2023/06/11 08:29:03;;;;;;;8.55;6.95;;;;;;;35.76;33.20;101433.53;4974869;28;20389;-68
2023/06/11 08:31:29;;;;;;;9.55;6.85;;;;;;;36.30;32.75;101436.91;5002904;28;20504;-73
2023/06/11 08:33:54;;;;;;;9.75;6.13;;;;;;;37.19;32.21;101433.50;5010855;28;20038;-73
2023/06/11 08:36:20;;;;;;;9.75;6.63;;;;;;;37.56;30.01;101432.28;5010864;28;20485;-73
2023/06/11 08:38:46;;;;;;;11.77;6.97;;;;;;;37.81;28.96;101436.34;5010862;28;20030;-73
2023/06/11 08:41:12;;;;;;;10.85;6.60;;;;;;;38.14;28.22;101432.19;5003486;28;20038;-73
2023/06/11 08:43:38;;;;;;;12.10;7.78;;;;;;;38.17;28.26;101428.63;5010384;28;20037;-73
2023/06/11 08:46:05;;;;;;;11.27;7.78;;;;;;;38.68;28.29;101425.50;5010860;28;20052;-73
2023/06/11 08:48:35;;;;;;;7.88;6.57;;;;;;;38.67;26.91;101432.25;5010569;28;20030;-73
2023/06/11 08:51:03;;;;;;;8.35;6.22;;;;;;;38.36;27.25;101433.34;4992776;28;20596;-73
2023/06/11 08:53:30;;;;;;;10.68;6.60;;;;;;;38.08;27.48;101428.09;5010773;28;20049;-73
2023/06/11 08:55:56;;;;;;;9.00;6.47;;;;;;;38.37;28.13;101421.81;5010453;28;20030;-73
2023/06/11 08:58:22;;;;;;;8.88;6.15;;;;;;;38.65;28.53;101417.09;4991651;28;20092;-73
2023/06/11 09:00:48;;;;;;;9.77;6.40;;;;;;;39.04;26.38;101428.84;5000199;28;20076;-73
2023/06/11 09:03:13;;;;;;;8.73;6.45;;;;;;;38.67;26.71;101425.88;4991028;28;20041;-73
2023/06/11 09:05:39;;;;;;;9.50;6.35;;;;;;;37.43;29.21;101421.25;5001826;28;20381;-72
2023/06/11 09:08:08;;;;;;;10.77;6.72;;;;;;;35.66;30.59;101416.56;4991663;28;20040;-70
2023/06/11 09:10:33;;;;;;;10.40;6.88;;;;;;;33.96;33.46;101417.13;4990536;28;20536;-70
2023/06/11 09:13:00;;;;;;;9.57;7.00;;;;;;;32.79;35.28;101420.63;4974251;28;20034;-70
2023/06/11 09:15:26;;;;;;;12.77;7.03;;;;;;;32.02;37.18;101419.81;4991432;28;20118;-70
2023/06/11 09:17:51;;;;;;;9.15;6.63;;;;;;;31.26;38.92;101414.75;4991457;28;20113;-70
2023/06/11 09:20:18;;;;;;;9.60;7.00;;;;;;;30.77;40.38;101415.63;4996567;28;20124;-73
2023/06/11 09:22:45;;;;;;;9.20;6.63;;;;;;;30.40;40.02;101418.91;4999876;28;20030;-73
2023/06/11 09:25:18;;;;;;;9.63;7.25;;;;;;;29.98;41.19;101416.41;4995394;28;20992;-73
2023/06/11 09:27:48;;;;;;;9.88;6.95;;;;;;;29.82;41.91;101424.22;5006626;28;20446;-73
2023/06/11 09:30:17;;;;;;;8.57;6.45;;;;;;;29.64;42.50;101415.03;5009708;28;20044;-73
2023/06/11 09:32:45;;;;;;;11.52;7.18;;;;;;;29.49;43.82;101409.88;5000483;28;20624;-72
2023/06/11 09:35:13;;;;;;;12.32;6.97;;;;;;;29.54;42.91;101415.25;5009209;28;20022;-72
2023/06/11 09:37:50;;;;;;;8.10;7.03;;;;;;;29.51;43.45;101410.38;5009302;28;20034;-72
2023/06/11 09:40:18;;;;;;;8.98;7.13;;;;;;;29.47;44.10;101412.09;5010008;28;20050;-72
2023/06/11 09:42:48;;;;;;;15.70;6.82;;;;;;;29.47;42.22;101412.94;5009742;28;20045;-72
2023/06/11 09:45:23;;;;;;;10.35;6.30;;;;;;;29.48;43.73;101417.31;5009795;28;20026;-71
2023/06/11 09:47:50;;;;;;;9.40;6.50;;;;;;;29.33;41.91;101417.66;4999995;28;20054;-76
2023/06/11 09:50:18;;;;;;;6.53;5.88;;;;;;;29.24;41.68;101419.53;4990967;28;20534;-76
2023/06/11 09:52:44;;;;;;;9.57;6.40;;;;;;;29.15;42.95;101415.88;4973469;28;20037;-75
2023/06/11 09:55:10;;;;;;;8.52;6.43;;;;;;;29.26;43.91;101415.31;4973523;28;20041;-75
2023/06/11 09:57:40;;;;;;;10.48;6.85;;;;;;;29.26;42.92;101414.50;4990820;28;20101;-75
2023/06/11 10:00:09;;;;;;;8.85;6.88;;;;;;;29.26;43.09;101409.81;4993707;28;20120;-75
2023/06/11 10:02:39;;;;;;;7.57;5.90;;;;;;;29.39;43.81;101415.59;5004316;28;20080;-75
2023/06/11 10:05:07;;;;;;;7.32;6.13;;;;;;;29.31;43.05;101421.84;4990384;28;20396;-75
2023/06/11 10:07:39;;;;;;;7.03;6.05;;;;;;;29.23;42.52;101426.13;4972128;28;20026;-74
2023/06/11 10:10:09;;;;;;;7.43;6.05;;;;;;;29.26;43.73;101420.00;4990626;28;20049;-74
2023/06/11 10:12:34;;;;;;;9.65;6.70;;;;;;;29.34;42.57;101412.97;4990515;28;20473;-74
2023/06/11 10:15:03;;;;;;;10.85;6.90;;;;;;;29.49;43.62;101416.16;4972877;28;20035;-74
2023/06/11 10:17:29;;;;;;;9.32;6.70;;;;;;;29.49;41.94;101416.16;4975335;28;20331;-74
2023/06/11 10:19:55;;;;;;;10.85;6.85;;;;;;;29.39;43.32;101413.66;4991704;28;20037;-74
2023/06/11 10:22:30;;;;;;;10.13;6.30;;;;;;;29.42;42.59;101414.97;5008937;28;20026;-74
2023/06/11 10:25:02;;;;;;;7.80;6.20;;;;;;;29.55;43.16;101418.81;5008816;28;20042;-74
2023/06/11 10:27:40;;;;;;;7.72;6.32;;;;;;;29.57;44.34;101411.06;4988393;28;20049;-72
2023/06/11 10:30:07;;;;;;;9.55;6.07;;;;;;;29.62;41.29;101416.44;4975532;28;20030;-70
2023/06/11 10:32:33;;;;;;;10.50;6.35;;;;;;;29.66;41.54;101420.22;4993455;28;20525;-72
2023/06/11 10:35:03;;;;;;;6.35;5.63;;;;;;;29.76;41.18;101422.69;4995616;28;20030;-71
2023/06/11 10:37:40;;;;;;;7.80;5.07;;;;;;;29.78;42.18;101425.97;4993920;28;20076;-71
2023/06/11 10:40:08;;;;;;;10.98;6.78;;;;;;;29.79;40.39;101415.78;4994763;28;20039;-73
2023/06/11 10:42:38;;;;;;;7.28;5.50;;;;;;;29.78;39.07;101417.72;4993079;28;20025;-69
2023/06/11 10:45:08;;;;;;;6.60;5.35;;;;;;;29.71;38.52;101411.81;4994301;28;20105;-70
2023/06/11 10:47:59;;;;;;;7.53;5.63;;;;;;;29.78;41.04;101403.97;4994462;28;20077;-71
2023/06/11 10:50:30;;;;;;;7.93;5.00;;;;;;;29.66;39.66;101410.03;4993620;28;20065;-74
2023/06/11 10:53:06;;;;;;;5.30;4.80;;;;;;;29.76;38.83;101419.16;4995578;28;20125;-75
2023/06/11 10:55:32;;;;;;;6.18;4.75;;;;;;;29.77;38.11;101405.09;4993928;28;20477;-75
2023/06/11 10:57:59;;;;;;;10.07;6.07;;;;;;;29.76;37.67;101411.69;4994303;28;20119;-77
2023/06/11 11:00:32;;;;;;;5.82;4.80;;;;;;;29.66;37.91;101400.97;4994582;28;20403;-75
2023/06/11 11:02:59;;;;;;;5.90;4.45;;;;;;;29.79;39.93;101410.25;4977620;28;20152;-72
2023/06/11 11:05:25;;;;;;;24.95;5.82;;;;;;;29.82;38.10;101418.72;4994002;28;20018;-72
2023/06/11 11:07:55;;;;;;;7.00;5.32;;;;;;;29.88;38.56;101397.41;4993755;28;20385;-74
2023/06/11 11:10:25;;;;;;;5.25;4.55;;;;;;;29.97;38.14;101401.00;4997441;28;20060;-71
2023/06/11 11:12:51;;;;;;;6.30;4.28;;;;;;;30.02;37.51;101408.31;5008490;28;20512;-71